Time;durP1;ratioP1;P1;durP2;ratioP2;P2;SDS_P1;SDS_P2;PMS_P1;PMS_P2;Temp;Humidity;BMP_temperature;BMP_pressure;BME280_temperature;BME280_humidity;BME280_pressure;Samples;Min_cycle;Max_cycle;Signal;HPM_P1;HPM_P2
2021/03/11 00:00:36;;;;;;;;;;;5.50;99.90;;;;;;8327022;28;19905;-62
2021/03/11 00:04:36;;;;;;;;;;;5.60;99.90;;;;;;8327142;28;19909;-62
2021/03/11 00:08:37;;;;;;;;;;;5.70;99.90;;;;;;8329586;28;19912;-62
2021/03/11 00:12:41;;;;;;;;;;;5.70;99.90;;;;;;8358976;28;19904;-62
2021/03/11 00:16:42;;;;;;;;;;;5.70;99.90;;;;;;8359900;28;20317;-62
2021/03/11 00:20:42;;;;;;;;;;;5.80;99.90;;;;;;8359625;28;19913;-62
2021/03/11 00:24:43;;;;;;;;;;;5.80;99.90;;;;;;8359820;28;19913;-62
2021/03/11 00:28:43;;;;;;;;;;;5.80;99.90;;;;;;8341708;28;20367;-62
2021/03/11 00:32:44;;;;;;;;;;;6.00;99.90;;;;;;8359342;28;19924;-62
2021/03/11 00:36:44;;;;;;;;;;;6.00;99.90;;;;;;8359678;28;19912;-62
2021/03/11 00:40:45;;;;;;;;;;;6.00;99.90;;;;;;8358644;28;19904;-62
2021/03/11 00:44:45;;;;;;;;;;;6.10;99.90;;;;;;8345037;28;19905;-62
2021/03/11 00:48:46;;;;;;;;;;;6.10;99.90;;;;;;8365916;28;20373;-62
2021/03/11 00:52:46;;;;;;;;;;;6.30;99.90;;;;;;8365330;28;19922;-62
2021/03/11 00:56:47;;;;;;;;;;;6.30;99.90;;;;;;8365103;28;19905;-62
2021/03/11 01:00:47;;;;;;;;;;;6.40;99.90;;;;;;8346873;28;20022;-62
2021/03/11 01:04:48;;;;;;;;;;;6.50;99.90;;;;;;8364971;28;19915;-62
2021/03/11 01:08:48;;;;;;;;;;;6.60;99.90;;;;;;8364446;28;19962;-62
2021/03/11 01:12:48;;;;;;;;;;;6.60;99.90;;;;;;8363791;28;19917;-62
2021/03/11 01:16:49;;;;;;;;;;;6.70;99.90;;;;;;8364601;28;19913;-62
2021/03/11 01:20:50;;;;;;;;;;;6.80;99.90;;;;;;8346492;28;19919;-62
2021/03/11 01:24:50;;;;;;;;;;;6.90;99.90;;;;;;8364284;28;19912;-62
2021/03/11 01:28:51;;;;;;;;;;;7.00;99.90;;;;;;8363940;28;19904;-62
2021/03/11 01:32:52;;;;;;;;;;;7.10;99.90;;;;;;8364012;28;20424;-62
2021/03/11 01:36:52;;;;;;;;;;;7.10;99.90;;;;;;8364076;28;19905;-62
2021/03/11 01:40:53;;;;;;;;;;;7.20;99.90;;;;;;8363015;28;20023;-62
2021/03/11 01:44:54;;;;;;;;;;;7.30;99.90;;;;;;8338170;28;20265;-62
2021/03/11 01:48:54;;;;;;;;;;;7.30;99.90;;;;;;8329079;28;20382;-62
2021/03/11 01:52:55;;;;;;;;;;;7.40;99.90;;;;;;8329715;28;20267;-62
2021/03/11 01:56:55;;;;;;;;;;;7.40;99.90;;;;;;8327769;28;20363;-62
2021/03/11 02:00:56;;;;;;;;;;;7.40;99.90;;;;;;8328852;28;19966;-62
2021/03/11 02:09:34;;;;;;;;;;;7.50;99.90;;;;;;8324586;28;19912;-62
2021/03/11 02:13:48;;;;;;;;;;;7.50;99.90;;;;;;8328742;28;20371;-62
2021/03/11 02:18:08;;;;;;;;;;;7.50;99.90;;;;;;8332580;28;19983;-62
2021/03/11 02:22:19;;;;;;;;;;;7.60;99.90;;;;;;8327946;28;19919;-63
2021/03/11 02:26:37;;;;;;;;;;;7.60;99.80;;;;;;8343144;28;20385;-62
2021/03/11 02:30:39;;;;;;;;;;;7.60;99.70;;;;;;8327975;28;19905;-62
2021/03/11 02:34:46;;;;;;;;;;;7.60;99.50;;;;;;8328250;28;19956;-62
2021/03/11 02:38:47;;;;;;;;;;;7.70;99.50;;;;;;8333786;28;19944;-62
2021/03/11 02:42:48;;;;;;;;;;;7.60;99.40;;;;;;8342763;28;19908;-62
2021/03/11 02:46:50;;;;;;;;;;;7.60;99.00;;;;;;8361510;28;19905;-62
2021/03/11 02:50:51;;;;;;;;;;;7.60;99.00;;;;;;8343496;28;19911;-62
2021/03/11 02:54:52;;;;;;;;;;;7.60;98.90;;;;;;8340447;28;19915;-62
2021/03/11 02:58:53;;;;;;;;;;;7.70;98.70;;;;;;8327095;28;19905;-62
2021/03/11 03:02:54;;;;;;;;;;;7.60;99.20;;;;;;8325464;28;19920;-62
2021/03/11 03:06:56;;;;;;;;;;;7.60;99.20;;;;;;8325508;28;20371;-62
2021/03/11 03:10:57;;;;;;;;;;;7.60;98.90;;;;;;8331347;28;20268;-62
2021/03/11 03:14:57;;;;;;;;;;;7.70;98.10;;;;;;8326672;28;19905;-62
2021/03/11 03:18:58;;;;;;;;;;;7.60;97.80;;;;;;8326409;28;19905;-62
2021/03/11 03:23:03;;;;;;;;;;;7.60;97.10;;;;;;8327065;28;19912;-62
2021/03/11 03:27:03;;;;;;;;;;;7.70;96.90;;;;;;8327612;28;20040;-62
2021/03/11 03:31:04;;;;;;;;;;;7.70;96.30;;;;;;8343167;28;19959;-62
2021/03/11 03:35:06;;;;;;;;;;;7.70;95.50;;;;;;8415297;22;20061;-70
2021/03/11 03:39:08;;;;;;;;;;;7.90;95.10;;;;;;8430543;28;19927;-70
2021/03/11 03:43:08;;;;;;;;;;;7.90;94.20;;;;;;8450818;28;19912;-70
2021/03/11 03:47:11;;;;;;;19.23;12.50;;;8.00;93.80;;;;;;8405420;28;20387;-70
2021/03/11 03:51:13;;;;;;;;;;;8.00;93.30;;;;;;8392351;28;20458;-70
2021/03/11 03:55:14;;;;;;;;;;;8.00;93.40;;;;;;8393622;28;19904;-70
2021/03/11 03:59:20;;;;;;;;;;;8.00;93.10;;;;;;8393310;28;19904;-72
2021/03/11 04:03:21;;;;;;;;;;;8.00;92.70;;;;;;8391971;28;19939;-70
2021/03/11 04:07:25;;;;;;;;;;;8.00;92.90;;;;;;8391129;28;19904;-70
2021/03/11 04:11:26;;;;;;;;;;;8.00;92.90;;;;;;8406758;28;20378;-71
2021/03/11 04:15:27;;;;;;;;;;;8.10;93.30;;;;;;8388862;28;19908;-70
2021/03/11 04:19:28;;;;;;;;;;;8.00;93.60;;;;;;8409282;28;19923;-70
2021/03/11 04:23:28;;;;;;;;;;;8.00;93.50;;;;;;8397394;28;20293;-70
2021/03/11 04:27:29;;;;;;;;;;;8.00;93.90;;;;;;8414118;28;19954;-71
2021/03/11 04:31:30;;;;;;;;;;;7.90;93.80;;;;;;8396931;28;19915;-71
2021/03/11 04:35:30;;;;;;;;;;;7.90;94.50;;;;;;8398679;28;20761;-71
2021/03/11 04:39:31;;;;;;;;;;;8.00;94.20;;;;;;8409939;28;19904;-71
2021/03/11 04:43:33;;;;;;;;;;;8.00;94.00;;;;;;8430358;28;19908;-70
2021/03/11 04:47:35;;;;;;;;;;;8.00;93.80;;;;;;8432039;28;19911;-70
2021/03/11 04:51:37;;;;;;;;;;;8.00;93.80;;;;;;8432229;28;19912;-71
2021/03/11 04:55:38;;;;;;;;;;;8.00;93.70;;;;;;8394459;28;19996;-70
2021/03/11 04:59:38;;;;;;;;;;;8.00;93.80;;;;;;8396350;28;20363;-70
2021/03/11 05:03:45;;;;;;;;;;;8.00;94.40;;;;;;8396094;28;19912;-72
2021/03/11 05:07:45;;;;;;;;;;;7.90;96.10;;;;;;8395000;28;19912;-70
2021/03/11 05:11:47;;;;;;;;;;;7.70;97.50;;;;;;8422253;28;19936;-71
2021/03/11 05:15:47;;;;;;;;;;;7.70;97.40;;;;;;8397109;28;19909;-70
2021/03/11 05:19:47;;;;;;;;;;;7.80;97.30;;;;;;8410859;28;19908;-70
2021/03/11 05:23:48;;;;;;;;;;;7.80;97.60;;;;;;8394718;28;20455;-70
2021/03/11 05:27:49;;;;;;;;;;;7.80;97.70;;;;;;8396665;28;20376;-71
2021/03/11 05:31:49;;;;;;;;;;;7.80;97.90;;;;;;8395568;28;20385;-70
2021/03/11 05:35:51;;;;;;;;;;;7.80;97.90;;;;;;8393744;28;19981;-70
2021/03/11 05:39:51;;;;;;;;;;;7.80;98.80;;;;;;8398378;28;19908;-62
2021/03/11 05:43:52;;;;;;;;;;;7.80;99.90;;;;;;8391282;28;20309;-70
2021/03/11 05:47:52;;;;;;;;;;;7.80;99.90;;;;;;8387632;28;19958;-70
2021/03/11 05:51:53;;;;;;;;;;;7.80;99.90;;;;;;8391599;28;19918;-71
2021/03/11 05:55:53;;;;;;;;;;;7.80;99.90;;;;;;8389391;28;19909;-70
2021/03/11 05:59:55;;;;;;;;;;;7.80;99.90;;;;;;8387333;28;20628;-70
2021/03/11 06:03:55;;;;;;;;;;;7.90;99.90;;;;;;8377978;28;19915;-70
2021/03/11 06:07:57;;;;;;;;;;;7.80;99.90;;;;;;8376792;28;19904;-71
2021/03/11 06:11:58;;;;;;;;;;;7.70;99.90;;;;;;8381220;28;19976;-71
2021/03/11 06:16:04;;;;;;;;;;;7.50;99.90;;;;;;8376967;28;20025;-71
2021/03/11 06:20:06;;;;;;;;;;;7.40;99.90;;;;;;8409827;28;19905;-71
2021/03/11 06:24:07;;;;;;;;;;;7.20;99.90;;;;;;8378621;28;19912;-71
2021/03/11 06:28:07;;;;;;;;;;;7.20;99.90;;;;;;8392244;28;19911;-71
2021/03/11 06:32:08;;;;;;;;;;;7.30;99.90;;;;;;8393057;28;19912;-71
2021/03/11 06:36:18;;;;;;;;;;;7.40;99.90;;;;;;8392428;28;19997;-71
2021/03/11 06:40:20;;;;;;;;;;;7.50;99.90;;;;;;8393082;28;19935;-71
2021/03/11 06:44:33;;;;;;;;;;;7.60;99.90;;;;;;8393596;28;19916;-70
2021/03/11 06:48:34;;;;;;;;;;;7.70;99.90;;;;;;8389530;28;20001;-71
2021/03/11 06:52:35;;;;;;;;;;;7.80;99.90;;;;;;8391418;28;19983;-71
2021/03/11 06:56:40;;;;;;;;;;;7.80;99.90;;;;;;8399662;28;19912;-71
2021/03/11 07:00:41;;;;;;;;;;;7.90;99.90;;;;;;8393467;28;19919;-71
2021/03/11 07:04:42;;;;;;;;;;;7.90;99.90;;;;;;8392658;28;20332;-71
2021/03/11 07:08:52;;;;;;;;;;;8.00;99.90;;;;;;8398394;28;19908;-71
2021/03/11 07:12:56;;;;;;;;;;;8.00;99.90;;;;;;8426398;28;19904;-70
2021/03/11 07:17:15;;;;;;;;;;;8.00;99.90;;;;;;8427456;28;19904;-71
2021/03/11 07:21:36;;;;;;;;;;;8.00;99.90;;;;;;8427463;28;19908;-70
2021/03/11 07:25:41;;;;;;;;;;;8.00;99.90;;;;;;8425779;28;19904;-71
2021/03/11 07:29:42;;;;;;;;;;;8.00;99.90;;;;;;8427228;28;19923;-71
2021/03/11 07:33:45;;;;;;;;;;;8.00;99.90;;;;;;8427379;28;19998;-70
2021/03/11 07:37:47;;;;;;;;;;;8.10;99.90;;;;;;8426823;28;19943;-71
2021/03/11 07:41:48;;;;;;;;;;;8.10;99.90;;;;;;8426053;28;19947;-70
2021/03/11 07:45:48;;;;;;;;;;;8.10;99.90;;;;;;8426497;28;20500;-71
2021/03/11 07:49:49;;;;;;;;;;;8.30;99.90;;;;;;8426930;28;19912;-71
2021/03/11 07:53:50;;;;;;;;;;;8.30;99.90;;;;;;8429126;28;19911;-71
2021/03/11 07:57:50;;;;;;;;;;;8.40;99.90;;;;;;8433424;28;19908;-71
2021/03/11 08:01:55;;;;;;;;;;;8.50;99.90;;;;;;8433531;28;20053;-71
2021/03/11 08:06:16;;;;;;;;;;;8.60;99.90;;;;;;8433226;28;19904;-71
2021/03/11 08:10:20;;;;;;;;;;;8.60;99.90;;;;;;8431530;28;19911;-71
2021/03/11 08:14:24;;;;;;;;;;;8.70;99.90;;;;;;8430956;28;20358;-71
2021/03/11 08:18:34;;;;;;;;;;;8.80;99.90;;;;;;8431740;28;19935;-71
2021/03/11 08:22:55;;;;;;;;;;;8.90;99.90;;;;;;8432931;28;19908;-71
2021/03/11 08:26:56;;;;;;;;;;;9.10;99.90;;;;;;8432624;28;19910;-71
2021/03/11 08:31:01;;;;;;;;;;;9.10;99.90;;;;;;8432702;28;19904;-71
2021/03/11 08:35:22;;;;;;;;;;;9.20;99.90;;;;;;8432459;28;19916;-71
2021/03/11 08:39:29;;;;;;;;;;;9.30;99.90;;;;;;8431934;28;19952;-71
2021/03/11 08:43:39;;;;;;;;;;;9.30;99.90;;;;;;8430251;28;19908;-70
2021/03/11 08:47:58;;;;;;;;;;;9.20;99.90;;;;;;8430993;28;20362;-71
2021/03/11 08:51:59;;;;;;;;;;;9.30;99.90;;;;;;8432374;28;19904;-70
2021/03/11 08:55:59;;;;;;;;;;;9.40;99.90;;;;;;8431761;28;19981;-71
2021/03/11 09:00:00;;;;;;;;;;;9.70;99.90;;;;;;8431730;28;19904;-71
2021/03/11 09:04:04;;;;;;;;;;;9.80;99.90;;;;;;8429717;28;19965;-70
2021/03/11 09:08:08;;;;;;;;;;;9.90;99.90;;;;;;8431434;28;19904;-71
2021/03/11 09:12:11;;;;;;;;;;;10.20;99.90;;;;;;8429930;28;20142;-71
2021/03/11 09:16:11;;;;;;;;;;;10.40;99.90;;;;;;8429697;28;19908;-71
2021/03/11 09:20:13;;;;;;;;;;;10.40;99.90;;;;;;8429838;28;19956;-71
2021/03/11 09:24:20;;;;;;;;;;;10.60;99.90;;;;;;8430902;28;19965;-71
2021/03/11 09:28:20;;;;;;;;;;;10.90;99.90;;;;;;8430719;28;19908;-71
2021/03/11 09:32:25;;;;;;;;;;;11.10;99.90;;;;;;8429400;28;20030;-71
2021/03/11 09:36:26;;;;;;;;;;;11.30;99.90;;;;;;8419054;22;19965;-62
2021/03/11 09:40:28;;;;;;;;;;;11.30;99.90;;;;;;8414838;28;19904;-62
2021/03/11 09:44:28;;;;;;;;;;;11.50;99.90;;;;;;8415191;28;20035;-62
2021/03/11 09:48:33;;;;;;;;;;;11.80;99.90;;;;;;8396456;28;19904;-62
2021/03/11 09:52:52;;;;;;;;;;;12.00;99.90;;;;;;8396477;28;19910;-62
2021/03/11 09:56:52;;;;;;;;;;;12.20;99.90;;;;;;8396135;28;19958;-62
2021/03/11 10:00:53;;;;;;;;;;;12.40;99.90;;;;;;8396242;28;20509;-62
2021/03/11 10:04:53;;;;;;;;;;;12.50;99.90;;;;;;8395854;28;20382;-62
2021/03/11 10:08:54;;;;;;;;;;;12.50;99.90;;;;;;8394973;28;19904;-62
2021/03/11 10:12:55;;;;;;;;;;;12.50;99.90;;;;;;8376280;28;20401;-62
2021/03/11 10:16:57;;;;;;;;;;;12.60;99.90;;;;;;8376983;28;19904;-62
2021/03/11 10:21:04;;;;;;;;;;;12.60;99.90;;;;;;8395271;28;20539;-62
2021/03/11 10:25:12;;;;;;;;;;;12.90;99.50;;;;;;8395230;28;19964;-62
2021/03/11 10:29:16;;;;;;;;;;;13.00;98.30;;;;;;8394946;28;20581;-62
2021/03/11 10:33:17;;;;;;;;;;;13.20;99.00;;;;;;8377026;28;19916;-62
2021/03/11 10:37:43;;;;;;;;;;;13.20;98.30;;;;;;8394648;28;19904;-62
2021/03/11 10:42:04;;;;;;;;;;;13.50;98.00;;;;;;8389444;28;19912;-63
2021/03/11 10:46:05;;;;;;;;;;;13.80;97.50;;;;;;8393964;28;19920;-62
2021/03/11 10:50:16;;;;;;;;;;;14.40;96.70;;;;;;8393804;28;19927;-62
2021/03/11 10:54:26;;;;;;;;;;;14.30;96.10;;;;;;8375591;28;19931;-62
2021/03/11 10:58:27;;;;;;;;;;;14.30;96.50;;;;;;8356235;28;19912;-62
2021/03/11 11:02:28;;;;;;;;;;;14.30;96.40;;;;;;8360178;28;19955;-62
2021/03/11 11:06:30;;;;;;;;;;;14.70;96.00;;;;;;8360440;28;19963;-62
2021/03/11 11:10:32;;;;;;;;;;;15.30;95.00;;;;;;8358910;28;19908;-62
2021/03/11 11:14:32;;;;;;;;;;;15.30;94.40;;;;;;8342297;28;19905;-62
2021/03/11 11:18:33;;;;;;;;;;;15.00;95.00;;;;;;8357885;28;19908;-62
2021/03/11 11:22:34;;;;;;;;;;;15.10;95.90;;;;;;8367824;28;19986;-62
2021/03/11 11:26:34;;;;;;;;;;;15.50;95.20;;;;;;8363607;28;20367;-62
2021/03/11 11:30:36;;;;;;;;;;;15.20;95.70;;;;;;8359190;28;19909;-62
2021/03/11 11:34:36;;;;;;;;;;;15.40;95.50;;;;;;8359292;28;19912;-62
2021/03/11 11:38:37;;;;;;;;;;;15.30;95.60;;;;;;8362657;28;19904;-62
2021/03/11 11:42:37;;;;;;;;;;;15.90;95.00;;;;;;8358875;28;19913;-62
2021/03/11 11:46:40;;;;;;;;;;;16.10;94.80;;;;;;8359458;28;20298;-62
2021/03/11 11:50:40;;;;;;;;;;;16.10;95.00;;;;;;8341471;28;19951;-62
2021/03/11 11:54:41;;;;;;;;;;;16.00;95.20;;;;;;8359666;28;20321;-63
2021/03/11 11:58:44;;;;;;;;;;;15.60;96.00;;;;;;8358383;28;19970;-62
2021/03/11 12:02:45;;;;;;;;;;;15.40;97.00;;;;;;8358314;28;20382;-62
2021/03/11 12:06:45;;;;;;;;;;;15.20;97.30;;;;;;8359406;28;19992;-62
2021/03/11 12:10:46;;;;;;;;;;;15.10;98.60;;;;;;8359068;28;20390;-62
2021/03/11 12:14:46;;;;;;;;;;;15.10;99.00;;;;;;8345211;28;19908;-62
2021/03/11 12:18:47;;;;;;;;;;;14.90;99.60;;;;;;8357231;28;20437;-62
2021/03/11 12:22:47;;;;;;;;;;;14.60;99.90;;;;;;8356774;28;20394;-62
2021/03/11 12:26:48;;;;;;;;;;;14.70;99.90;;;;;;8357152;28;20316;-62
2021/03/11 12:30:49;;;;;;;;;;;14.50;99.90;;;;;;8357079;28;19908;-62
2021/03/11 12:34:50;;;;;;;;;;;14.50;99.90;;;;;;8355900;28;19955;-62
2021/03/11 12:38:52;;;;;;;;;;;14.60;99.90;;;;;;8356552;28;19915;-62
2021/03/11 12:42:52;;;;;;;;;;;14.60;99.90;;;;;;8352885;28;19927;-62
2021/03/11 12:46:54;;;;;;;;;;;14.60;99.90;;;;;;8348468;28;20405;-62
2021/03/11 12:50:54;;;;;;;;;;;14.60;99.90;;;;;;8362512;28;19988;-62
2021/03/11 12:54:55;;;;;;;;;;;14.50;99.90;;;;;;8362907;28;19905;-62
2021/03/11 12:58:55;;;;;;;;;;;14.40;99.90;;;;;;8362915;28;19905;-62
2021/03/11 13:02:56;;;;;;;;;;;14.30;99.90;;;;;;8363204;28;19913;-62
2021/03/11 13:06:56;;;;;;;;;;;14.30;99.90;;;;;;8364729;28;19948;-62
2021/03/11 13:10:57;;;;;;;;;;;14.30;99.90;;;;;;8363667;28;19905;-62
2021/03/11 13:14:57;;;;;;;;;;;14.30;99.90;;;;;;8362968;28;19915;-62
2021/03/11 13:18:58;;;;;;;;;;;14.30;99.90;;;;;;8360302;28;19908;-62
2021/03/11 13:22:59;;;;;;;;;;;14.30;99.90;;;;;;8362351;28;20294;-63
2021/03/11 13:26:59;;;;;;;;;;;14.30;99.90;;;;;;8363273;28;19905;-62
2021/03/11 13:30:59;;;;;;;;;;;14.30;99.90;;;;;;8363722;28;19908;-62
2021/03/11 13:35:00;;;;;;;;;;;14.20;99.90;;;;;;8345254;28;19913;-62
2021/03/11 13:39:01;;;;;;;;;;;14.20;99.90;;;;;;8351486;28;20409;-63
2021/03/11 13:43:02;;;;;;;;;;;14.30;99.90;;;;;;8395345;28;20361;-62
2021/03/11 13:47:02;;;;;;;;;;;14.30;99.90;;;;;;8372972;28;19909;-62
2021/03/11 13:51:03;;;;;;;;;;;14.30;99.90;;;;;;8324325;28;19928;-62
2021/03/11 13:55:05;;;;;;;;;;;14.40;99.90;;;;;;8362263;28;19995;-62
2021/03/11 13:59:05;;;;;;;;;;;14.40;99.90;;;;;;8361412;28;19912;-62
2021/03/11 14:03:06;;;;;;;;;;;14.50;99.90;;;;;;8361139;28;20373;-63
2021/03/11 14:07:06;;;;;;;;;;;14.60;99.90;;;;;;8361237;28;19916;-62
2021/03/11 14:11:07;;;;;;;;;;;15.20;99.90;;;;;;8366156;28;19947;-62
2021/03/11 14:15:07;;;;;;;;;;;15.30;99.90;;;;;;8342965;28;20275;-62
2021/03/11 14:19:09;;;;;;;;;;;15.00;99.90;;;;;;8360645;28;19909;-62
2021/03/11 14:23:10;;;;;;;;;;;15.00;99.90;;;;;;8348152;28;19926;-62
2021/03/11 14:27:10;;;;;;;;;;;15.00;99.90;;;;;;8359974;28;19912;-62
2021/03/11 14:31:11;;;;;;;;;;;14.80;99.90;;;;;;8359796;28;19912;-62
2021/03/11 14:35:11;;;;;;;;;;;14.70;99.90;;;;;;8342821;28;20371;-62
2021/03/11 14:39:13;;;;;;;;;;;14.70;99.90;;;;;;8368484;28;20355;-62
2021/03/11 14:43:13;;;;;;;;;;;14.70;99.90;;;;;;8359703;28;19912;-62
2021/03/11 14:47:15;;;;;;;;;;;14.70;99.90;;;;;;8367049;28;20010;-62
2021/03/11 14:51:17;;;;;;;;;;;14.60;99.90;;;;;;8362148;28;19905;-63
2021/03/11 14:55:17;;;;;;;;;;;14.40;99.90;;;;;;8336822;28;19996;-62
2021/03/11 14:59:18;;;;;;;;;;;14.40;99.90;;;;;;8355726;28;20290;-62
2021/03/11 15:03:18;;;;;;;;;;;14.20;99.90;;;;;;8338977;28;19927;-63
2021/03/11 15:07:19;;;;;;;;;;;14.00;99.90;;;;;;8353961;28;19916;-62
2021/03/11 15:11:20;;;;;;;;;;;14.00;99.90;;;;;;8353958;28;19917;-62
2021/03/11 15:15:21;;;;;;;;;;;13.90;99.90;;;;;;8340459;28;19913;-62
2021/03/11 15:19:22;;;;;;;;;;;13.80;99.90;;;;;;8358838;28;20042;-62
2021/03/11 15:23:22;;;;;;;;;;;13.70;99.90;;;;;;8360988;28;19913;-62
2021/03/11 15:27:23;;;;;;;;;;;13.70;99.90;;;;;;8334993;28;19914;-62
2021/03/11 15:31:23;;;;;;;;;;;13.60;99.90;;;;;;8326430;28;19913;-62
2021/03/11 15:35:24;;;;;;;;;;;13.60;99.90;;;;;;8326598;28;20666;-62
2021/03/11 15:39:25;;;;;;;;;;;13.60;99.90;;;;;;8370704;22;20301;-72
2021/03/11 15:43:25;;;;;;;;;;;13.70;99.90;;;;;;8423144;28;19924;-72
2021/03/11 15:47:26;;;;;;;;;;;13.70;99.90;;;;;;8424367;28;19908;-72
2021/03/11 15:51:26;;;;;;;;;;;13.70;99.90;;;;;;8426419;28;20434;-72
2021/03/11 15:55:27;;;;;;;;;;;13.70;99.90;;;;;;8426059;28;19973;-72
2021/03/11 15:59:27;;;;;;;;;;;13.60;99.90;;;;;;8402776;28;19947;-72
2021/03/11 16:03:28;;;;;;;;;;;13.60;99.90;;;;;;8423582;28;20255;-72
2021/03/11 16:07:28;;;;;;;;;;;13.60;99.90;;;;;;8426979;28;19946;-72
2021/03/11 16:11:29;;;;;;;;;;;13.60;99.90;;;;;;8434403;28;20609;-72
2021/03/11 16:15:29;;;;;;;;;;;13.50;99.90;;;;;;8438489;28;19954;-72
2021/03/11 16:19:30;;;;;;;;;;;13.50;99.90;;;;;;8421176;28;19997;-72
2021/03/11 16:23:31;;;;;;;;;;;13.40;99.90;;;;;;8415510;28;19926;-73
2021/03/11 16:27:31;;;;;;;;;;;13.40;99.90;;;;;;8409278;28;19966;-72
2021/03/11 16:31:32;;;;;;;;;;;13.20;99.90;;;;;;8401810;28;20065;-72
2021/03/11 16:35:33;;;;;;;;;;;13.20;99.90;;;;;;8399378;28;19909;-72
2021/03/11 16:39:33;;;;;;;;;;;13.00;99.90;;;;;;8420016;28;19908;-72
2021/03/11 16:43:34;;;;;;;;;;;12.60;99.90;;;;;;8409201;28;19921;-72
2021/03/11 16:47:35;;;;;;;;;;;12.20;99.90;;;;;;8408064;28;19915;-73
2021/03/11 16:51:35;;;;;;;;;;;12.00;99.90;;;;;;8411934;28;19912;-72
2021/03/11 16:55:36;;;;;;;;;;;12.00;99.90;;;;;;8406743;28;20298;-72
2021/03/11 16:59:36;;;;;;;;;;;11.80;99.90;;;;;;8402623;28;19915;-71
2021/03/11 17:03:37;;;;;;;;;;;11.10;99.90;;;;;;8407841;28;20389;-71
2021/03/11 17:07:38;;;;;;;;;;;10.50;99.90;;;;;;8415392;28;19908;-72
2021/03/11 17:11:38;;;;;;;;;;;10.30;99.90;;;;;;8425272;28;20423;-71
2021/03/11 17:15:39;;;;;;;;;;;10.10;99.90;;;;;;8413500;28;20369;-71
2021/03/11 17:19:39;;;;;;;;;;;9.90;99.90;;;;;;8417257;28;20378;-71
2021/03/11 17:23:40;;;;;;;;;;;9.70;99.90;;;;;;8422001;28;19918;-71
2021/03/11 17:27:40;;;;;;;;;;;9.60;99.90;;;;;;8415438;28;20421;-71
2021/03/11 17:31:41;;;;;;;;;;;9.60;99.90;;;;;;8425635;28;19914;-71
2021/03/11 17:35:41;;;;;;;;;;;9.50;99.90;;;;;;8430453;28;19950;-71
2021/03/11 17:39:42;;;;;;;;;;;9.40;99.90;;;;;;8421127;28;19941;-70
2021/03/11 17:43:42;;;;;;;;;;;9.30;99.90;;;;;;8430103;28;19912;-71
2021/03/11 17:47:43;;;;;;;;;;;9.30;99.90;;;;;;8430199;28;19911;-70
2021/03/11 17:51:43;;;;;;;;;;;9.20;99.90;;;;;;8430209;28;20366;-70
2021/03/11 17:55:44;;;;;;;;;;;9.10;99.90;;;;;;8428952;28;19912;-71
2021/03/11 17:59:44;;;;;;;;;;;9.00;99.90;;;;;;8417873;28;20302;-72
2021/03/11 18:03:46;;;;;;;;;;;9.00;99.90;;;;;;8404171;28;20374;-70
2021/03/11 18:07:47;;;;;;;;;;;9.00;99.90;;;;;;8400857;28;19916;-69
2021/03/11 18:11:49;;;;;;;;;;;8.90;99.90;;;;;;8411588;28;20442;-70
2021/03/11 18:15:49;;;;;;;;;;;8.90;99.90;;;;;;8404261;28;19908;-70
2021/03/11 18:19:50;;;;;;;;;;;8.90;99.90;;;;;;8406127;28;19920;-70
2021/03/11 18:23:50;;;;;;;;;;;8.90;99.90;;;;;;8406960;28;19954;-70
2021/03/11 18:27:51;;;;;;;;;;;8.90;99.90;;;;;;8412644;28;19919;-70
2021/03/11 18:31:52;;;;;;;;;;;8.80;99.90;;;;;;8409135;28;19912;-70
2021/03/11 18:35:52;;;;;;;;;;;8.80;99.90;;;;;;8410282;28;19912;-70
2021/03/11 18:39:53;;;;;;;;;;;8.70;99.90;;;;;;8407894;28;19912;-69
2021/03/11 18:43:54;;;;;;;;;;;8.70;99.90;;;;;;8408013;28;19923;-69
2021/03/11 18:47:54;;;;;;;;;;;8.70;99.90;;;;;;8410599;28;19904;-69
2021/03/11 18:51:55;;;;;;;;;;;8.60;99.90;;;;;;8407108;28;19908;-69
2021/03/11 18:55:55;;;;;;;;;;;8.70;99.90;;;;;;8424260;28;20584;-69
2021/03/11 18:59:56;;;;;;;;;;;8.70;99.90;;;;;;8417701;28;20391;-70
2021/03/11 19:03:56;;;;;;;;;;;8.70;99.90;;;;;;8404477;28;20317;-76
2021/03/11 19:07:58;;;;;;;;;;;8.70;99.90;;;;;;8391091;28;20008;-72
2021/03/11 19:11:58;;;;;;;;;;;8.60;99.90;;;;;;8392685;28;19912;-72
2021/03/11 19:15:59;;;;;;;;;;;8.60;99.90;;;;;;8400795;28;19919;-72
2021/03/11 19:19:59;;;;;;;;;;;8.50;99.90;;;;;;8398162;28;19912;-72
2021/03/11 19:24:00;;;;;;;;;;;8.60;99.90;;;;;;8395488;28;20589;-72
2021/03/11 19:28:00;;;;;;;;;;;8.50;99.90;;;;;;8400002;28;19908;-72
2021/03/11 19:32:01;;;;;;;;;;;8.50;99.90;;;;;;8398736;28;19904;-72
2021/03/11 19:36:03;;;;;;;;;;;8.50;99.90;;;;;;8388820;28;19948;-72
2021/03/11 19:40:05;;;;;;;;;;;8.50;99.90;;;;;;8400254;28;19916;-73
2021/03/11 19:44:06;;;;;;;;;;;8.80;99.90;;;;;;8388542;28;19908;-72
2021/03/11 19:48:07;;;;;;;;;;;8.80;99.90;;;;;;8410583;28;20339;-72
2021/03/11 19:52:07;;;;;;;;;;;8.90;99.90;;;;;;8398444;28;20450;-72
2021/03/11 19:56:08;;;;;;;;;;;8.90;99.90;;;;;;8395336;28;19908;-72
2021/03/11 20:00:10;;;;;;;;;;;8.80;99.90;;;;;;8393037;28;19927;-72
2021/03/11 20:04:11;;;;;;;;;;;8.90;99.90;;;;;;8393032;28;19916;-72
2021/03/11 20:08:11;;;;;;;;;;;8.90;99.90;;;;;;8395687;28;19912;-72
2021/03/11 20:12:12;;;;;;;;;;;8.90;99.90;;;;;;8396776;28;19912;-71
2021/03/11 20:16:12;;;;;;;;;;;8.90;99.90;;;;;;8397047;28;19912;-72
2021/03/11 20:20:13;;;;;;;;;;;8.80;99.90;;;;;;8396377;28;19912;-72
2021/03/11 20:24:14;;;;;;;;;;;8.90;99.90;;;;;;8396291;28;19952;-71
2021/03/11 20:28:14;;;;;;;;;;;8.80;99.90;;;;;;8384003;28;19999;-72
2021/03/11 20:32:15;;;;;;;;;;;8.80;99.90;;;;;;8403187;28;19937;-70
2021/03/11 20:36:15;;;;;;;;;;;8.70;99.90;;;;;;8417653;28;19919;-70
2021/03/11 20:40:16;;;;;;;;;;;8.70;99.90;;;;;;8404403;28;19974;-70
2021/03/11 20:44:17;;;;;;;;;;;8.80;99.90;;;;;;8406812;28;19915;-70
2021/03/11 20:48:17;;;;;;;;;;;8.70;99.90;;;;;;8402946;28;19966;-70
2021/03/11 20:52:18;;;;;;;;;;;8.70;99.90;;;;;;8403785;28;19912;-71
2021/03/11 20:56:19;;;;;;;;;;;8.70;99.90;;;;;;8404125;28;19904;-71
2021/03/11 21:00:20;;;;;;;;;;;8.70;99.90;;;;;;8405645;28;19947;-71
2021/03/11 21:04:21;;;;;;;;;;;8.70;99.90;;;;;;8407806;28;19916;-71
2021/03/11 21:08:21;;;;;;;;;;;8.70;99.90;;;;;;8424708;28;19919;-71
2021/03/11 21:12:22;;;;;;;;;;;8.60;99.90;;;;;;8393967;28;19981;-70
2021/03/11 21:16:22;;;;;;;;;;;8.70;99.90;;;;;;8408993;28;19916;-71
2021/03/11 21:20:25;;;;;;;;;;;8.70;99.90;;;;;;8427427;28;19915;-71
2021/03/11 21:24:25;;;;;;;;;;;8.60;99.90;;;;;;8423685;28;19958;-71
2021/03/11 21:28:26;;;;;;;;;;;8.50;99.90;;;;;;8412380;28;20422;-71
2021/03/11 21:32:26;;;;;;;;;;;8.40;99.90;;;;;;8410582;28;20281;-71
2021/03/11 21:36:27;;;;;;;;;;;8.30;99.90;;;;;;8412434;28;20412;-71
2021/03/11 21:40:28;;;;;;;;;;;8.30;99.90;;;;;;8420392;22;19951;-62
2021/03/11 21:44:29;;;;;;;;;;;8.20;99.90;;;;;;8367548;28;19948;-62
2021/03/11 21:48:29;;;;;;;;;;;8.00;99.90;;;;;;8363187;28;19905;-62
2021/03/11 21:52:30;;;;;;;;;;;8.00;99.90;;;;;;8363499;28;21061;-61
2021/03/11 21:56:30;;;;;;;;;;;7.90;99.90;;;;;;8361400;28;19905;-61
2021/03/11 22:00:31;;;;;;;;;;;7.90;99.90;;;;;;8361503;28;19911;-61
2021/03/11 22:04:31;;;;;;;;;;;7.90;99.90;;;;;;8362091;28;19952;-62
2021/03/11 22:08:32;;;;;;;;;;;7.90;99.90;;;;;;8362825;28;19915;-62
2021/03/11 22:12:33;;;;;;;;;;;7.90;99.90;;;;;;8360229;28;19909;-62
2021/03/11 22:16:33;;;;;;;;;;;7.90;99.90;;;;;;8361570;28;19912;-62
2021/03/11 22:20:34;;;;;;;;;;;7.80;99.90;;;;;;8361807;28;19905;-62
2021/03/11 22:24:34;;;;;;;;;;;7.80;99.90;;;;;;8361693;28;19909;-62
2021/03/11 22:28:35;;;;;;;;;;;7.90;99.90;;;;;;8354920;28;19909;-62
2021/03/11 22:32:36;;;;;;;;;;;7.90;99.90;;;;;;8328149;28;19909;-62
2021/03/11 22:36:37;;;;;;;;;;;7.80;99.90;;;;;;8326975;28;19975;-61
2021/03/11 22:40:41;;;;;;;;;;;7.20;99.90;;;;;;8366738;28;20030;-61
2021/03/11 22:44:42;;;;;;;;;;;6.30;99.90;;;;;;8394100;28;20385;-61
2021/03/11 22:48:43;;;;;;;0.73;0.25;;;5.40;99.90;;;;;;8392254;28;20380;-61
2021/03/11 22:52:43;;;;;;;0.10;0.10;;;4.70;99.90;;;;;;8394096;28;20399;-61
2021/03/11 22:56:44;;;;;;;0.28;0.20;;;4.40;99.90;;;;;;8394133;28;20024;-61
2021/03/11 23:00:45;;;;;;;0.10;0.10;;;4.30;99.90;;;;;;8379603;28;20036;-61
2021/03/11 23:04:45;;;;;;;0.10;0.10;;;4.30;99.90;;;;;;8326771;28;20025;-61
2021/03/11 23:08:47;;;;;;;0.55;0.20;;;4.30;99.90;;;;;;8332881;28;20044;-61
2021/03/11 23:12:48;;;;;;;0.22;0.22;;;4.30;99.90;;;;;;8392738;28;20121;-61
2021/03/11 23:16:48;;;;;;;0.10;0.10;;;4.50;99.90;;;;;;8392828;28;20029;-61
2021/03/11 23:20:50;;;;;;;0.30;0.30;;;4.50;99.90;;;;;;8393185;28;20031;-61
2021/03/11 23:24:51;;;;;;;0.10;0.10;;;4.60;99.90;;;;;;8393181;28;20067;-61
2021/03/11 23:28:52;;;;;;;0.20;0.20;;;4.70;99.90;;;;;;8393177;28;20029;-61
2021/03/11 23:32:53;;;;;;;0.43;0.22;;;4.80;99.90;;;;;;8378123;28;20036;-61
2021/03/11 23:36:53;;;;;;;0.10;0.10;;;4.90;99.90;;;;;;8326263;28;20051;-61